sensor_id;sensor_type;location;lat;lon;timestamp;temperature;humidity
48752;DHT22;34544;48.836;9.174;2023-11-19T00:00:34;8.70;99.90
48752;DHT22;34544;48.836;9.174;2023-11-19T00:03:00;8.80;99.90
48752;DHT22;34544;48.836;9.174;2023-11-19T00:05:26;8.80;99.90
48752;DHT22;34544;48.836;9.174;2023-11-19T00:07:53;8.80;99.90
48752;DHT22;34544;48.836;9.174;2023-11-19T00:10:19;8.90;99.90
48752;DHT22;34544;48.836;9.174;2023-11-19T00:12:48;8.90;99.90
48752;DHT22;34544;48.836;9.174;2023-11-19T00:15:15;9.00;99.90
48752;DHT22;34544;48.836;9.174;2023-11-19T00:17:41;9.00;99.90
48752;DHT22;34544;48.836;9.174;2023-11-19T00:20:18;9.00;99.90
48752;DHT22;34544;48.836;9.174;2023-11-19T00:22:44;9.00;99.90
48752;DHT22;34544;48.836;9.174;2023-11-19T00:25:13;9.00;99.90
48752;DHT22;34544;48.836;9.174;2023-11-19T00:27:39;9.00;99.90
48752;DHT22;34544;48.836;9.174;2023-11-19T00:30:06;9.00;99.90
48752;DHT22;34544;48.836;9.174;2023-11-19T00:32:32;9.10;99.90
48752;DHT22;34544;48.836;9.174;2023-11-19T00:34:59;9.10;99.90
48752;DHT22;34544;48.836;9.174;2023-11-19T00:37:25;9.10;99.90
48752;DHT22;34544;48.836;9.174;2023-11-19T00:39:51;9.20;99.90
48752;DHT22;34544;48.836;9.174;2023-11-19T00:42:30;9.20;99.90
48752;DHT22;34544;48.836;9.174;2023-11-19T00:44:55;9.30;99.90
48752;DHT22;34544;48.836;9.174;2023-11-19T00:47:21;9.40;99.90
48752;DHT22;34544;48.836;9.174;2023-11-19T00:49:48;9.40;99.90
48752;DHT22;34544;48.836;9.174;2023-11-19T00:52:15;9.50;99.90
48752;DHT22;34544;48.836;9.174;2023-11-19T00:54:41;9.60;99.90
48752;DHT22;34544;48.836;9.174;2023-11-19T00:57:09;9.60;99.90
48752;DHT22;34544;48.836;9.174;2023-11-19T00:59:35;9.60;99.90
48752;DHT22;34544;48.836;9.174;2023-11-19T01:02:02;9.60;99.90
48752;DHT22;34544;48.836;9.174;2023-11-19T01:04:29;9.70;99.90
48752;DHT22;34544;48.836;9.174;2023-11-19T01:06:55;9.80;99.90
48752;DHT22;34544;48.836;9.174;2023-11-19T01:09:21;9.80;99.90
48752;DHT22;34544;48.836;9.174;2023-11-19T01:11:46;9.80;99.90
48752;DHT22;34544;48.836;9.174;2023-11-19T01:14:12;9.90;99.90
48752;DHT22;34544;48.836;9.174;2023-11-19T01:16:38;9.90;99.90
48752;DHT22;34544;48.836;9.174;2023-11-19T01:19:03;9.90;99.90
48752;DHT22;34544;48.836;9.174;2023-11-19T01:21:30;9.90;99.90
48752;DHT22;34544;48.836;9.174;2023-11-19T01:23:57;10.00;99.90
48752;DHT22;34544;48.836;9.174;2023-11-19T01:26:25;10.00;99.90
48752;DHT22;34544;48.836;9.174;2023-11-19T01:28:50;10.00;99.90
48752;DHT22;34544;48.836;9.174;2023-11-19T01:31:18;10.00;99.90
48752;DHT22;34544;48.836;9.174;2023-11-19T01:33:44;10.00;99.90
48752;DHT22;34544;48.836;9.174;2023-11-19T01:36:13;10.10;99.90
48752;DHT22;34544;48.836;9.174;2023-11-19T01:38:39;10.10;99.90
48752;DHT22;34544;48.836;9.174;2023-11-19T01:41:05;10.10;99.90
48752;DHT22;34544;48.836;9.174;2023-11-19T01:43:35;10.10;99.90
48752;DHT22;34544;48.836;9.174;2023-11-19T01:46:02;10.10;99.90
48752;DHT22;34544;48.836;9.174;2023-11-19T01:48:33;10.10;99.90
48752;DHT22;34544;48.836;9.174;2023-11-19T01:51:00;10.20;99.90
48752;DHT22;34544;48.836;9.174;2023-11-19T01:53:27;10.20;99.90
48752;DHT22;34544;48.836;9.174;2023-11-19T01:55:53;10.20;99.90
48752;DHT22;34544;48.836;9.174;2023-11-19T01:58:19;10.30;99.90
48752;DHT22;34544;48.836;9.174;2023-11-19T02:00:45;10.40;99.90
48752;DHT22;34544;48.836;9.174;2023-11-19T02:03:12;10.40;99.90
48752;DHT22;34544;48.836;9.174;2023-11-19T02:05:39;10.50;99.90
48752;DHT22;34544;48.836;9.174;2023-11-19T02:08:05;10.50;99.90
48752;DHT22;34544;48.836;9.174;2023-11-19T02:10:31;10.50;99.90
48752;DHT22;34544;48.836;9.174;2023-11-19T02:12:58;10.50;99.90
48752;DHT22;34544;48.836;9.174;2023-11-19T02:15:24;10.50;99.90
48752;DHT22;34544;48.836;9.174;2023-11-19T02:17:50;10.60;99.90
48752;DHT22;34544;48.836;9.174;2023-11-19T02:20:17;10.60;99.90
48752;DHT22;34544;48.836;9.174;2023-11-19T02:22:46;10.60;99.90
48752;DHT22;34544;48.836;9.174;2023-11-19T02:25:20;10.60;99.90
48752;DHT22;34544;48.836;9.174;2023-11-19T02:27:59;10.60;99.90
48752;DHT22;34544;48.836;9.174;2023-11-19T02:30:26;10.60;99.90
48752;DHT22;34544;48.836;9.174;2023-11-19T02:32:56;10.60;99.90
48752;DHT22;34544;48.836;9.174;2023-11-19T02:35:23;10.60;99.90
48752;DHT22;34544;48.836;9.174;2023-11-19T02:37:49;10.70;99.90
48752;DHT22;34544;48.836;9.174;2023-11-19T02:40:14;10.60;99.90
48752;DHT22;34544;48.836;9.174;2023-11-19T02:42:40;10.70;99.90
48752;DHT22;34544;48.836;9.174;2023-11-19T02:45:07;10.70;99.90
48752;DHT22;34544;48.836;9.174;2023-11-19T02:47:34;10.70;99.90
48752;DHT22;34544;48.836;9.174;2023-11-19T02:50:00;10.70;99.90
48752;DHT22;34544;48.836;9.174;2023-11-19T02:52:26;10.70;99.90
48752;DHT22;34544;48.836;9.174;2023-11-19T02:54:52;10.70;99.90
48752;DHT22;34544;48.836;9.174;2023-11-19T02:57:18;10.80;99.90
48752;DHT22;34544;48.836;9.174;2023-11-19T02:59:46;10.80;99.90
48752;DHT22;34544;48.836;9.174;2023-11-19T03:02:12;10.70;99.90
48752;DHT22;34544;48.836;9.174;2023-11-19T03:04:41;10.70;99.90
48752;DHT22;34544;48.836;9.174;2023-11-19T03:07:09;10.60;99.90
48752;DHT22;34544;48.836;9.174;2023-11-19T03:09:35;10.60;99.90
48752;DHT22;34544;48.836;9.174;2023-11-19T03:12:01;10.60;99.90
48752;DHT22;34544;48.836;9.174;2023-11-19T03:14:28;10.60;99.90
48752;DHT22;34544;48.836;9.174;2023-11-19T03:16:54;10.50;99.90
48752;DHT22;34544;48.836;9.174;2023-11-19T03:19:19;10.50;99.90
48752;DHT22;34544;48.836;9.174;2023-11-19T03:21:45;10.50;99.90
48752;DHT22;34544;48.836;9.174;2023-11-19T03:24:13;10.50;99.90
48752;DHT22;34544;48.836;9.174;2023-11-19T03:26:39;10.40;99.90
48752;DHT22;34544;48.836;9.174;2023-11-19T03:29:04;10.40;99.90
48752;DHT22;34544;48.836;9.174;2023-11-19T03:31:30;10.40;99.90
48752;DHT22;34544;48.836;9.174;2023-11-19T03:33:56;10.40;99.90
48752;DHT22;34544;48.836;9.174;2023-11-19T03:36:22;10.30;99.90
48752;DHT22;34544;48.836;9.174;2023-11-19T03:38:48;10.30;99.90
48752;DHT22;34544;48.836;9.174;2023-11-19T03:41:14;10.30;99.90
48752;DHT22;34544;48.836;9.174;2023-11-19T03:43:41;10.20;99.90
48752;DHT22;34544;48.836;9.174;2023-11-19T03:46:20;10.20;99.90
48752;DHT22;34544;48.836;9.174;2023-11-19T03:48:47;10.20;99.90
48752;DHT22;34544;48.836;9.174;2023-11-19T03:51:13;10.20;99.90
48752;DHT22;34544;48.836;9.174;2023-11-19T03:53:45;10.20;99.90
48752;DHT22;34544;48.836;9.174;2023-11-19T03:56:11;10.20;99.90
48752;DHT22;34544;48.836;9.174;2023-11-19T03:58:38;10.20;99.90
48752;DHT22;34544;48.836;9.174;2023-11-19T04:01:11;10.20;99.90
48752;DHT22;34544;48.836;9.174;2023-11-19T04:03:39;10.20;99.90
48752;DHT22;34544;48.836;9.174;2023-11-19T04:06:05;10.20;99.90
48752;DHT22;34544;48.836;9.174;2023-11-19T04:08:31;10.20;99.90
48752;DHT22;34544;48.836;9.174;2023-11-19T04:10:56;10.20;99.90
48752;DHT22;34544;48.836;9.174;2023-11-19T04:13:22;10.20;99.90
48752;DHT22;34544;48.836;9.174;2023-11-19T04:15:50;10.20;99.90
48752;DHT22;34544;48.836;9.174;2023-11-19T04:18:15;10.20;99.90
48752;DHT22;34544;48.836;9.174;2023-11-19T04:20:41;10.20;99.90
48752;DHT22;34544;48.836;9.174;2023-11-19T04:23:08;10.20;99.90
48752;DHT22;34544;48.836;9.174;2023-11-19T04:25:35;10.20;99.90
48752;DHT22;34544;48.836;9.174;2023-11-19T04:28:01;10.20;99.90
48752;DHT22;34544;48.836;9.174;2023-11-19T04:30:28;10.20;99.90
48752;DHT22;34544;48.836;9.174;2023-11-19T04:32:54;10.30;99.90
48752;DHT22;34544;48.836;9.174;2023-11-19T04:35:19;10.30;99.90
48752;DHT22;34544;48.836;9.174;2023-11-19T04:37:45;10.40;99.90
48752;DHT22;34544;48.836;9.174;2023-11-19T04:40:13;10.30;99.90
48752;DHT22;34544;48.836;9.174;2023-11-19T04:42:38;10.40;99.90
48752;DHT22;34544;48.836;9.174;2023-11-19T04:45:07;10.40;99.90
48752;DHT22;34544;48.836;9.174;2023-11-19T04:47:36;10.40;99.90
48752;DHT22;34544;48.836;9.174;2023-11-19T04:50:02;10.50;99.90
48752;DHT22;34544;48.836;9.174;2023-11-19T04:52:29;10.50;99.90
48752;DHT22;34544;48.836;9.174;2023-11-19T04:54:54;10.50;99.90
48752;DHT22;34544;48.836;9.174;2023-11-19T04:57:20;10.50;99.90
48752;DHT22;34544;48.836;9.174;2023-11-19T04:59:46;10.60;99.90
48752;DHT22;34544;48.836;9.174;2023-11-19T05:02:12;10.50;99.90
48752;DHT22;34544;48.836;9.174;2023-11-19T05:04:43;10.60;99.90
48752;DHT22;34544;48.836;9.174;2023-11-19T05:07:10;10.60;99.90
48752;DHT22;34544;48.836;9.174;2023-11-19T05:09:35;10.70;99.90
48752;DHT22;34544;48.836;9.174;2023-11-19T05:12:01;10.80;99.90
48752;DHT22;34544;48.836;9.174;2023-11-19T05:14:27;10.90;99.90
48752;DHT22;34544;48.836;9.174;2023-11-19T05:16:53;11.00;99.90
48752;DHT22;34544;48.836;9.174;2023-11-19T05:19:19;11.10;99.90
48752;DHT22;34544;48.836;9.174;2023-11-19T05:21:45;11.10;99.90
48752;DHT22;34544;48.836;9.174;2023-11-19T05:24:10;11.20;99.90
48752;DHT22;34544;48.836;9.174;2023-11-19T05:26:38;11.30;99.90
48752;DHT22;34544;48.836;9.174;2023-11-19T05:29:03;11.40;99.90
48752;DHT22;34544;48.836;9.174;2023-11-19T05:31:30;11.40;99.90
48752;DHT22;34544;48.836;9.174;2023-11-19T05:33:55;11.50;99.90
48752;DHT22;34544;48.836;9.174;2023-11-19T05:36:21;11.50;99.90
48752;DHT22;34544;48.836;9.174;2023-11-19T05:38:47;11.60;99.90
48752;DHT22;34544;48.836;9.174;2023-11-19T05:41:13;11.60;99.90
48752;DHT22;34544;48.836;9.174;2023-11-19T05:43:39;11.60;99.90
48752;DHT22;34544;48.836;9.174;2023-11-19T05:46:06;11.60;99.90
48752;DHT22;34544;48.836;9.174;2023-11-19T05:48:33;11.70;99.90
48752;DHT22;34544;48.836;9.174;2023-11-19T05:50:59;11.70;99.90
48752;DHT22;34544;48.836;9.174;2023-11-19T05:53:25;11.70;99.90
48752;DHT22;34544;48.836;9.174;2023-11-19T05:55:51;11.70;99.90
48752;DHT22;34544;48.836;9.174;2023-11-19T05:58:27;11.80;99.90
48752;DHT22;34544;48.836;9.174;2023-11-19T06:00:58;11.80;99.90
48752;DHT22;34544;48.836;9.174;2023-11-19T06:03:26;11.80;99.90
48752;DHT22;34544;48.836;9.174;2023-11-19T06:05:52;11.80;99.90
48752;DHT22;34544;48.836;9.174;2023-11-19T06:08:18;11.70;99.90
48752;DHT22;34544;48.836;9.174;2023-11-19T06:10:46;11.70;99.90
48752;DHT22;34544;48.836;9.174;2023-11-19T06:13:13;11.60;99.90
48752;DHT22;34544;48.836;9.174;2023-11-19T06:15:43;11.60;99.90
48752;DHT22;34544;48.836;9.174;2023-11-19T06:18:09;11.50;99.90
48752;DHT22;34544;48.836;9.174;2023-11-19T06:20:37;11.50;99.90
48752;DHT22;34544;48.836;9.174;2023-11-19T06:23:03;11.60;99.90
48752;DHT22;34544;48.836;9.174;2023-11-19T06:25:29;11.60;99.90
48752;DHT22;34544;48.836;9.174;2023-11-19T06:27:54;11.70;99.90
48752;DHT22;34544;48.836;9.174;2023-11-19T06:30:20;11.60;99.90
48752;DHT22;34544;48.836;9.174;2023-11-19T06:32:46;11.70;99.90
48752;DHT22;34544;48.836;9.174;2023-11-19T06:35:12;11.70;99.90
48752;DHT22;34544;48.836;9.174;2023-11-19T06:37:40;11.70;99.90
48752;DHT22;34544;48.836;9.174;2023-11-19T06:40:07;11.70;99.90
48752;DHT22;34544;48.836;9.174;2023-11-19T06:42:35;11.80;99.90
48752;DHT22;34544;48.836;9.174;2023-11-19T06:45:02;11.80;99.90
48752;DHT22;34544;48.836;9.174;2023-11-19T06:47:28;11.90;99.90
48752;DHT22;34544;48.836;9.174;2023-11-19T06:49:55;11.90;99.90
48752;DHT22;34544;48.836;9.174;2023-11-19T06:52:21;11.90;99.90
48752;DHT22;34544;48.836;9.174;2023-11-19T06:54:47;12.00;99.90
48752;DHT22;34544;48.836;9.174;2023-11-19T06:57:13;12.00;99.90
48752;DHT22;34544;48.836;9.174;2023-11-19T06:59:39;12.00;99.90
48752;DHT22;34544;48.836;9.174;2023-11-19T07:02:06;12.00;99.90
48752;DHT22;34544;48.836;9.174;2023-11-19T07:04:32;12.00;99.90
48752;DHT22;34544;48.836;9.174;2023-11-19T07:07:01;12.00;99.90
48752;DHT22;34544;48.836;9.174;2023-11-19T07:09:27;12.00;99.90
48752;DHT22;34544;48.836;9.174;2023-11-19T07:11:53;11.90;99.90
48752;DHT22;34544;48.836;9.174;2023-11-19T07:14:19;11.90;99.90
48752;DHT22;34544;48.836;9.174;2023-11-19T07:16:45;11.90;99.90
48752;DHT22;34544;48.836;9.174;2023-11-19T07:19:11;11.90;99.90
48752;DHT22;34544;48.836;9.174;2023-11-19T07:21:41;11.90;99.90
48752;DHT22;34544;48.836;9.174;2023-11-19T07:24:10;11.90;99.90
48752;DHT22;34544;48.836;9.174;2023-11-19T07:26:47;12.00;99.90
48752;DHT22;34544;48.836;9.174;2023-11-19T07:29:13;11.90;99.90
48752;DHT22;34544;48.836;9.174;2023-11-19T07:31:41;11.90;99.90
48752;DHT22;34544;48.836;9.174;2023-11-19T07:34:06;11.90;99.90
48752;DHT22;34544;48.836;9.174;2023-11-19T07:36:34;11.90;99.90
48752;DHT22;34544;48.836;9.174;2023-11-19T07:39:01;12.00;99.90
48752;DHT22;34544;48.836;9.174;2023-11-19T07:41:27;12.00;99.90
48752;DHT22;34544;48.836;9.174;2023-11-19T07:43:54;12.00;99.90
48752;DHT22;34544;48.836;9.174;2023-11-19T07:46:20;12.00;99.90
48752;DHT22;34544;48.836;9.174;2023-11-19T07:48:46;12.10;99.90
48752;DHT22;34544;48.836;9.174;2023-11-19T07:51:15;12.10;99.90
48752;DHT22;34544;48.836;9.174;2023-11-19T07:53:41;12.10;99.90
48752;DHT22;34544;48.836;9.174;2023-11-19T07:56:08;12.10;99.90
48752;DHT22;34544;48.836;9.174;2023-11-19T07:58:34;12.20;99.90
48752;DHT22;34544;48.836;9.174;2023-11-19T08:01:00;12.20;99.90
48752;DHT22;34544;48.836;9.174;2023-11-19T08:03:27;12.20;99.90
48752;DHT22;34544;48.836;9.174;2023-11-19T08:05:57;12.20;99.90
48752;DHT22;34544;48.836;9.174;2023-11-19T08:08:23;12.30;99.90
48752;DHT22;34544;48.836;9.174;2023-11-19T08:10:48;12.30;99.90
48752;DHT22;34544;48.836;9.174;2023-11-19T08:13:18;12.40;99.90
48752;DHT22;34544;48.836;9.174;2023-11-19T08:15:44;12.40;99.90
48752;DHT22;34544;48.836;9.174;2023-11-19T08:18:10;12.50;99.90
48752;DHT22;34544;48.836;9.174;2023-11-19T08:20:36;12.50;99.90
48752;DHT22;34544;48.836;9.174;2023-11-19T08:23:03;12.60;99.90
48752;DHT22;34544;48.836;9.174;2023-11-19T08:25:31;12.60;99.90
48752;DHT22;34544;48.836;9.174;2023-11-19T08:27:59;12.60;99.90
48752;DHT22;34544;48.836;9.174;2023-11-19T08:30:26;12.70;99.90
48752;DHT22;34544;48.836;9.174;2023-11-19T08:32:52;12.90;99.90
48752;DHT22;34544;48.836;9.174;2023-11-19T08:35:18;13.00;99.90
48752;DHT22;34544;48.836;9.174;2023-11-19T08:37:44;13.00;99.90
48752;DHT22;34544;48.836;9.174;2023-11-19T08:40:11;13.10;99.90
48752;DHT22;34544;48.836;9.174;2023-11-19T08:42:40;13.20;99.90
48752;DHT22;34544;48.836;9.174;2023-11-19T08:45:07;13.30;99.90
48752;DHT22;34544;48.836;9.174;2023-11-19T08:47:36;13.40;99.90
48752;DHT22;34544;48.836;9.174;2023-11-19T08:50:02;13.50;99.90
48752;DHT22;34544;48.836;9.174;2023-11-19T08:52:30;13.50;99.90
48752;DHT22;34544;48.836;9.174;2023-11-19T08:54:56;13.60;99.90
48752;DHT22;34544;48.836;9.174;2023-11-19T08:57:21;13.60;99.90
48752;DHT22;34544;48.836;9.174;2023-11-19T08:59:47;13.70;99.90
48752;DHT22;34544;48.836;9.174;2023-11-19T09:02:13;13.80;99.90
48752;DHT22;34544;48.836;9.174;2023-11-19T09:04:38;13.80;99.90
48752;DHT22;34544;48.836;9.174;2023-11-19T09:07:04;13.90;99.90
48752;DHT22;34544;48.836;9.174;2023-11-19T09:09:30;14.00;99.90
48752;DHT22;34544;48.836;9.174;2023-11-19T09:11:59;14.50;99.90
48752;DHT22;34544;48.836;9.174;2023-11-19T09:14:25;14.90;99.90
48752;DHT22;34544;48.836;9.174;2023-11-19T09:16:52;15.40;99.90
48752;DHT22;34544;48.836;9.174;2023-11-19T09:19:18;15.70;99.90
48752;DHT22;34544;48.836;9.174;2023-11-19T09:21:44;15.80;99.90
48752;DHT22;34544;48.836;9.174;2023-11-19T09:24:09;15.80;99.90
48752;DHT22;34544;48.836;9.174;2023-11-19T09:26:35;15.70;99.90
48752;DHT22;34544;48.836;9.174;2023-11-19T09:29:02;15.60;99.90
48752;DHT22;34544;48.836;9.174;2023-11-19T09:31:27;15.40;99.90
48752;DHT22;34544;48.836;9.174;2023-11-19T09:33:54;15.30;99.90
48752;DHT22;34544;48.836;9.174;2023-11-19T09:36:20;15.20;99.90
48752;DHT22;34544;48.836;9.174;2023-11-19T09:38:46;15.00;99.90
48752;DHT22;34544;48.836;9.174;2023-11-19T09:41:12;15.00;99.90
48752;DHT22;34544;48.836;9.174;2023-11-19T09:43:41;14.90;99.90
48752;DHT22;34544;48.836;9.174;2023-11-19T09:46:10;14.80;99.90
48752;DHT22;34544;48.836;9.174;2023-11-19T09:48:49;14.80;99.90
48752;DHT22;34544;48.836;9.174;2023-11-19T09:51:21;15.00;99.90
48752;DHT22;34544;48.836;9.174;2023-11-19T09:53:49;15.10;99.90
48752;DHT22;34544;48.836;9.174;2023-11-19T09:56:15;15.40;99.90
48752;DHT22;34544;48.836;9.174;2023-11-19T09:58:42;15.60;99.90
48752;DHT22;34544;48.836;9.174;2023-11-19T10:01:09;15.70;99.90
48752;DHT22;34544;48.836;9.174;2023-11-19T10:03:39;15.80;99.90
48752;DHT22;34544;48.836;9.174;2023-11-19T10:06:09;15.80;99.90
48752;DHT22;34544;48.836;9.174;2023-11-19T10:08:41;15.80;99.90
48752;DHT22;34544;48.836;9.174;2023-11-19T10:11:08;15.70;99.90
48752;DHT22;34544;48.836;9.174;2023-11-19T10:16:14;15.60;99.90
48752;DHT22;34544;48.836;9.174;2023-11-19T10:18:46;15.70;99.90
48752;DHT22;34544;48.836;9.174;2023-11-19T10:21:15;15.80;99.90
48752;DHT22;34544;48.836;9.174;2023-11-19T10:23:50;15.80;99.90
48752;DHT22;34544;48.836;9.174;2023-11-19T10:26:20;15.90;99.90
48752;DHT22;34544;48.836;9.174;2023-11-19T10:28:47;16.10;99.90
48752;DHT22;34544;48.836;9.174;2023-11-19T10:31:18;16.40;99.90
48752;DHT22;34544;48.836;9.174;2023-11-19T10:33:45;16.70;99.90
48752;DHT22;34544;48.836;9.174;2023-11-19T10:36:12;16.80;99.90
48752;DHT22;34544;48.836;9.174;2023-11-19T10:38:39;16.80;99.90
48752;DHT22;34544;48.836;9.174;2023-11-19T10:41:05;16.80;99.90
48752;DHT22;34544;48.836;9.174;2023-11-19T10:43:45;16.70;99.90
48752;DHT22;34544;48.836;9.174;2023-11-19T10:46:12;16.70;99.90
48752;DHT22;34544;48.836;9.174;2023-11-19T10:48:40;17.20;99.90
48752;DHT22;34544;48.836;9.174;2023-11-19T10:51:07;17.60;99.90
48752;DHT22;34544;48.836;9.174;2023-11-19T10:53:37;18.10;99.90
48752;DHT22;34544;48.836;9.174;2023-11-19T10:56:13;18.50;99.90
48752;DHT22;34544;48.836;9.174;2023-11-19T10:58:45;18.70;99.90
48752;DHT22;34544;48.836;9.174;2023-11-19T11:01:19;18.80;99.90
48752;DHT22;34544;48.836;9.174;2023-11-19T11:03:51;18.60;99.90
48752;DHT22;34544;48.836;9.174;2023-11-19T11:06:19;18.40;99.90
48752;DHT22;34544;48.836;9.174;2023-11-19T11:08:48;18.30;99.90
48752;DHT22;34544;48.836;9.174;2023-11-19T11:11:15;18.00;99.90
48752;DHT22;34544;48.836;9.174;2023-11-19T11:13:44;17.70;99.90
48752;DHT22;34544;48.836;9.174;2023-11-19T11:16:10;17.60;99.90
48752;DHT22;34544;48.836;9.174;2023-11-19T11:18:37;17.40;99.90
48752;DHT22;34544;48.836;9.174;2023-11-19T11:21:09;17.20;99.90
48752;DHT22;34544;48.836;9.174;2023-11-19T11:32:25;16.60;99.90
48752;DHT22;34544;48.836;9.174;2023-11-19T11:37:46;16.40;99.90
48752;DHT22;34544;48.836;9.174;2023-11-19T11:40:18;16.40;99.90
48752;DHT22;34544;48.836;9.174;2023-11-19T11:42:44;16.80;99.90
48752;DHT22;34544;48.836;9.174;2023-11-19T11:45:13;17.20;99.90
48752;DHT22;34544;48.836;9.174;2023-11-19T11:50:14;18.30;99.90
48752;DHT22;34544;48.836;9.174;2023-11-19T11:58:09;17.40;99.90
48752;DHT22;34544;48.836;9.174;2023-11-19T12:00:40;17.10;99.90
48752;DHT22;34544;48.836;9.174;2023-11-19T12:03:07;17.20;99.90
48752;DHT22;34544;48.836;9.174;2023-11-19T12:05:41;17.70;99.90
48752;DHT22;34544;48.836;9.174;2023-11-19T12:08:10;18.40;99.90
48752;DHT22;34544;48.836;9.174;2023-11-19T12:10:44;18.80;99.90
48752;DHT22;34544;48.836;9.174;2023-11-19T12:13:10;18.90;99.90
48752;DHT22;34544;48.836;9.174;2023-11-19T12:18:26;19.50;99.90
48752;DHT22;34544;48.836;9.174;2023-11-19T12:20:53;19.70;99.90
48752;DHT22;34544;48.836;9.174;2023-11-19T12:23:19;20.20;99.90
48752;DHT22;34544;48.836;9.174;2023-11-19T12:25:46;20.40;99.90
48752;DHT22;34544;48.836;9.174;2023-11-19T12:28:12;20.40;99.90
48752;DHT22;34544;48.836;9.174;2023-11-19T12:30:39;20.40;99.90
48752;DHT22;34544;48.836;9.174;2023-11-19T12:33:09;20.40;99.90
48752;DHT22;34544;48.836;9.174;2023-11-19T12:35:46;20.40;99.90
48752;DHT22;34544;48.836;9.174;2023-11-19T12:38:23;20.40;99.90
48752;DHT22;34544;48.836;9.174;2023-11-19T12:41:07;20.20;99.90
48752;DHT22;34544;48.836;9.174;2023-11-19T12:43:34;20.50;99.90
48752;DHT22;34544;48.836;9.174;2023-11-19T12:46:02;20.80;99.90
48752;DHT22;34544;48.836;9.174;2023-11-19T12:48:28;21.20;99.90
48752;DHT22;34544;48.836;9.174;2023-11-19T12:50:58;21.40;99.90
48752;DHT22;34544;48.836;9.174;2023-11-19T12:53:26;21.50;99.90
48752;DHT22;34544;48.836;9.174;2023-11-19T12:55:53;21.70;99.90
48752;DHT22;34544;48.836;9.174;2023-11-19T12:58:33;21.90;99.90
48752;DHT22;34544;48.836;9.174;2023-11-19T13:01:03;22.20;99.90
48752;DHT22;34544;48.836;9.174;2023-11-19T13:03:31;21.80;99.90
48752;DHT22;34544;48.836;9.174;2023-11-19T13:06:08;20.70;99.90
48752;DHT22;34544;48.836;9.174;2023-11-19T13:08:54;20.10;99.90
48752;DHT22;34544;48.836;9.174;2023-11-19T13:11:32;19.80;99.90
48752;DHT22;34544;48.836;9.174;2023-11-19T13:14:03;19.20;99.90
48752;DHT22;34544;48.836;9.174;2023-11-19T13:18:57;18.50;99.90
48752;DHT22;34544;48.836;9.174;2023-11-19T13:21:24;18.40;99.90
48752;DHT22;34544;48.836;9.174;2023-11-19T13:23:50;18.10;99.90
48752;DHT22;34544;48.836;9.174;2023-11-19T13:26:16;17.80;99.90
48752;DHT22;34544;48.836;9.174;2023-11-19T13:28:42;17.50;99.90
48752;DHT22;34544;48.836;9.174;2023-11-19T13:31:08;17.20;99.90
48752;DHT22;34544;48.836;9.174;2023-11-19T13:33:36;17.00;99.90
48752;DHT22;34544;48.836;9.174;2023-11-19T13:36:03;17.00;99.90
48752;DHT22;34544;48.836;9.174;2023-11-19T13:38:32;16.70;99.90
48752;DHT22;34544;48.836;9.174;2023-11-19T13:40:59;16.60;99.90
48752;DHT22;34544;48.836;9.174;2023-11-19T13:43:25;16.50;99.90
48752;DHT22;34544;48.836;9.174;2023-11-19T13:45:51;16.40;99.90
48752;DHT22;34544;48.836;9.174;2023-11-19T13:48:20;16.40;99.90
48752;DHT22;34544;48.836;9.174;2023-11-19T13:50:45;16.30;99.90
48752;DHT22;34544;48.836;9.174;2023-11-19T13:53:11;16.30;99.90
48752;DHT22;34544;48.836;9.174;2023-11-19T13:55:39;16.30;99.90
48752;DHT22;34544;48.836;9.174;2023-11-19T13:58:04;16.20;99.90
48752;DHT22;34544;48.836;9.174;2023-11-19T14:00:31;16.10;99.90
48752;DHT22;34544;48.836;9.174;2023-11-19T14:02:57;16.10;99.90
48752;DHT22;34544;48.836;9.174;2023-11-19T14:05:23;16.10;99.90
48752;DHT22;34544;48.836;9.174;2023-11-19T14:07:49;16.10;99.90
48752;DHT22;34544;48.836;9.174;2023-11-19T14:10:17;16.00;99.90
48752;DHT22;34544;48.836;9.174;2023-11-19T14:12:43;16.10;99.90
48752;DHT22;34544;48.836;9.174;2023-11-19T14:15:10;16.00;99.90
48752;DHT22;34544;48.836;9.174;2023-11-19T14:17:39;15.80;99.90
48752;DHT22;34544;48.836;9.174;2023-11-19T14:20:07;15.70;99.90
48752;DHT22;34544;48.836;9.174;2023-11-19T14:22:43;15.70;99.90
48752;DHT22;34544;48.836;9.174;2023-11-19T14:25:11;15.70;99.90
48752;DHT22;34544;48.836;9.174;2023-11-19T14:27:38;15.60;99.90
48752;DHT22;34544;48.836;9.174;2023-11-19T14:30:11;15.60;99.90
48752;DHT22;34544;48.836;9.174;2023-11-19T14:32:42;15.50;99.90
48752;DHT22;34544;48.836;9.174;2023-11-19T14:35:12;15.50;99.90
48752;DHT22;34544;48.836;9.174;2023-11-19T14:37:41;15.50;99.90
48752;DHT22;34544;48.836;9.174;2023-11-19T14:40:07;15.40;99.90
48752;DHT22;34544;48.836;9.174;2023-11-19T14:42:35;15.40;99.90
48752;DHT22;34544;48.836;9.174;2023-11-19T14:47:27;15.20;99.90
48752;DHT22;34544;48.836;9.174;2023-11-19T14:49:55;15.20;99.90
48752;DHT22;34544;48.836;9.174;2023-11-19T14:52:21;15.10;99.90
48752;DHT22;34544;48.836;9.174;2023-11-19T14:54:46;15.00;99.90
48752;DHT22;34544;48.836;9.174;2023-11-19T14:57:15;15.00;99.90
48752;DHT22;34544;48.836;9.174;2023-11-19T14:59:41;14.90;99.90
48752;DHT22;34544;48.836;9.174;2023-11-19T15:02:07;14.90;99.90
48752;DHT22;34544;48.836;9.174;2023-11-19T15:04:33;14.90;99.90
48752;DHT22;34544;48.836;9.174;2023-11-19T15:07:00;14.80;99.90
48752;DHT22;34544;48.836;9.174;2023-11-19T15:09:27;14.70;99.90
48752;DHT22;34544;48.836;9.174;2023-11-19T15:11:56;14.60;99.90
48752;DHT22;34544;48.836;9.174;2023-11-19T15:14:24;14.60;99.90
48752;DHT22;34544;48.836;9.174;2023-11-19T15:16:50;14.50;99.90
48752;DHT22;34544;48.836;9.174;2023-11-19T15:19:18;14.50;99.90
48752;DHT22;34544;48.836;9.174;2023-11-19T15:21:45;14.50;99.90
48752;DHT22;34544;48.836;9.174;2023-11-19T15:24:12;14.40;99.90
48752;DHT22;34544;48.836;9.174;2023-11-19T15:26:38;14.40;99.90
48752;DHT22;34544;48.836;9.174;2023-11-19T15:29:05;14.40;99.90
48752;DHT22;34544;48.836;9.174;2023-11-19T15:31:32;14.40;99.90
48752;DHT22;34544;48.836;9.174;2023-11-19T15:33:59;14.30;99.90
48752;DHT22;34544;48.836;9.174;2023-11-19T15:36:29;14.30;99.90
48752;DHT22;34544;48.836;9.174;2023-11-19T15:39:05;14.30;99.90
48752;DHT22;34544;48.836;9.174;2023-11-19T15:41:42;14.20;99.90
48752;DHT22;34544;48.836;9.174;2023-11-19T15:44:08;14.10;99.90
48752;DHT22;34544;48.836;9.174;2023-11-19T15:46:35;14.00;99.90
48752;DHT22;34544;48.836;9.174;2023-11-19T15:51:28;13.20;99.90
48752;DHT22;34544;48.836;9.174;2023-11-19T15:53:58;13.90;99.90
48752;DHT22;34544;48.836;9.174;2023-11-19T15:56:24;13.80;99.90
48752;DHT22;34544;48.836;9.174;2023-11-19T16:01:22;13.70;99.90
48752;DHT22;34544;48.836;9.174;2023-11-19T16:03:51;13.60;99.90
48752;DHT22;34544;48.836;9.174;2023-11-19T16:06:18;13.60;99.90
48752;DHT22;34544;48.836;9.174;2023-11-19T16:08:51;13.50;99.90